Latest Weather Observations for Broken Hill Airport

IDN60801

Issued at 12:02 pm EDT Wednesday 25 January 2017 (issued every 30 minutes, with the page automatically refreshed every 10 minutes)

About weather observations | Map of weather stations | Latest weather observations for NSW | Other Formats
Station Details ID: 047048 Name: BROKEN HILL AIRPORT AWS Lat: -32.00 Lon: 141.47 Height: 281.3 m
Data from the previous 72 hours. | See also: Recent months at Broken Hill Airport
Date/Time
EDT
Temp
°C
App
Temp
°C
Dew
Point
°C
Rel
Hum
%
Delta-T
°C
Wind Press
QNH
hPa
Press
MSL
hPa
Rain since
9am
mm
Dir  Spd
km/h
Gust
km/h
Spd
kts
Gust
kts
25/12:00pm 26.4 21.4 6.4 28 10.6 SSE 22 30 12 16 1018.9 1017.3 0.0
25/11:30am 25.1 20.1 6.3 30 9.8 SSE 22 30 12 16 1018.8 1017.2 0.0
25/11:00am 23.8 18.5 7.0 34 8.8 SSE 24 32 13 17 1019.1 1017.5 0.0
25/10:30am 22.8 17.8 8.1 39 7.8 SSE 24 32 13 17 1019.1 1017.5 0.0
25/10:00am 21.7 16.8 8.6 43 7.0 SSE 24 30 13 16 1019.0 1017.4 0.0
25/09:30am 21.0 16.1 8.6 45 6.6 S 24 32 13 17 1019.4 1017.8 0.0
25/09:00am 19.6 14.9 9.2 51 5.5 S 24 28 13 15 1019.1 1017.5 0.0
25/08:30am 19.1 14.3 8.7 51 5.5 S 24 32 13 17 1019.0 1017.4 0.0
25/08:00am 19.1 14.2 8.4 50 5.6 S 24 28 13 15 1018.4 1016.8 0.0
25/07:30am 19.1 15.0 8.7 51 5.5 S 20 32 11 17 1018.1 1016.5 0.0
25/07:00am 19.2 14.7 8.5 50 5.6 S 22 28 12 15 1017.8 1016.2 0.0
25/06:30am 19.3 14.7 8.0 48 5.9 S 22 30 12 16 1017.7 1016.1 0.0
25/06:00am 19.7 14.9 8.7 49 5.8 S 24 32 13 17 1017.5 1015.9 0.0
25/05:30am 20.2 15.7 8.5 47 6.2 S 22 30 12 16 1017.3 1015.7 0.0
25/05:00am 20.7 15.9 9.0 47 6.3 SSW 24 32 13 17 1017.1 1015.5 0.0
25/04:30am 21.6 17.5 8.5 43 7.0 S 20 28 11 15 1016.7 1015.1 0.0
25/04:00am 22.0 18.2 8.9 43 7.1 S 19 24 10 13 1016.7 1015.1 0.0
25/03:30am 22.5 18.2 7.9 39 7.7 S 20 28 11 15 1017.0 1015.4 0.0
25/03:00am 22.9 17.8 7.8 38 8.0 S 24 33 13 18 1016.8 1015.2 0.0
25/02:30am 23.1 18.1 8.0 38 8.1 S 24 30 13 16 1017.1 1015.5 0.0
25/02:00am 23.5 18.7 7.2 35 8.6 S 22 28 12 15 1017.5 1015.9 0.0
25/01:30am 23.8 19.0 7.4 35 8.7 SSE 22 28 12 15 1017.6 1016.0 0.0
25/01:00am 24.0 19.2 7.2 34 8.9 SSE 22 28 12 15 1017.7 1016.1 0.0
25/12:30am 24.1 19.0 7.7 35 8.7 S 24 32 13 17 1017.6 1016.0 0.0
25/12:00am 24.4 20.3 8.8 37 8.5 S 20 28 11 15 1017.7 1016.1 0.0
 
Date/Time
EDT
Temp
°C
App
Temp
°C
Dew
Point
°C
Rel
Hum
%
Delta-T
°C
Wind Press
QNH
hPa
Press
MSL
hPa
Rain since
9am
mm
Dir  Spd
km/h
Gust
km/h
Spd
kts
Gust
kts
24/11:30pm 24.8 20.7 8.7 36 8.8 S 20 26 11 14 1017.3 1015.7 0.0
24/11:00pm 24.9 20.6 9.2 37 8.6 SSE 22 28 12 15 1017.0 1015.4 0.0
24/10:30pm 25.4 20.3 9.3 36 8.9 SSE 26 35 14 19 1016.7 1015.1 0.0
24/10:00pm 25.5 20.6 10.1 38 8.6 SSE 26 35 14 19 1016.1 1014.4 0.0
24/09:30pm 26.0 20.1 10.6 38 8.7 S 32 39 17 21 1015.9 1014.2 0.0
24/09:00pm 26.5 23.6 12.9 43 8.0 S 20 28 11 15 1015.7 1014.0 0.0
24/08:30pm 27.0 23.0 13.0 42 8.3 S 26 35 14 19 1015.2 1013.6 0.0
24/08:00pm 27.3 24.9 14.3 45 7.9 SSE 20 26 11 14 1015.1 1013.5 0.0
24/07:30pm 27.4 25.8 15.1 47 7.5 SSE 17 20 9 11 1015.1 1013.5 0.0
24/07:00pm 27.5 26.5 15.5 48 7.4 SSE 15 20 8 11 1015.0 1013.4 0.0
24/06:30pm 27.4 26.6 16.1 50 7.0 S 15 20 8 11 1014.8 1013.2 0.0
24/06:00pm 26.6 25.4 16.2 52 6.5 S 17 24 9 13 1014.7 1013.1 0.0
24/05:30pm 27.1 26.3 17.0 54 6.4 S 17 22 9 12 1014.8 1013.2 0.0
24/05:00pm 26.6 25.3 16.8 55 6.2 SSE 19 24 10 13 1014.9 1013.3 0.0
24/04:30pm 26.3 24.9 16.5 54 6.1 S 19 24 10 13 1015.0 1013.4 0.0
24/04:00pm 26.8 25.0 17.0 55 6.2 S 22 30 12 16 1014.9 1013.3 0.0
24/03:30pm 26.1 24.3 16.9 57 5.8 S 22 33 12 18 1015.1 1013.5 0.0
24/03:00pm 25.5 23.9 16.6 58 5.5 S 20 35 11 19 1015.2 1013.6 0.0
24/02:30pm 24.6 22.5 16.3 60 5.1 S 22 30 12 16 1015.5 1013.8 0.0
24/02:00pm 24.3 21.9 16.3 61 4.9 S 24 30 13 16 1015.7 1014.0 0.0
24/01:30pm 22.5 19.7 17.2 72 3.3 S 28 37 15 20 1015.8 1014.1 0.0
24/01:21pm 21.9 19.6 17.5 76 2.7 S 26 37 14 20 1015.7 1014.0 0.0
24/01:00pm 21.8 19.8 18.4 81 2.2 S 26 33 14 18 1015.7 1014.0 0.0
24/12:33pm 20.4 18.6 18.7 90 1.1 S 26 32 14 17 1015.9 1014.2 0.0
24/12:30pm 20.3 18.5 18.8 91 0.9 S 26 32 14 17 1016.0 1014.3 0.0
24/12:00pm 20.0 17.8 18.8 93 0.8 S 28 35 15 19 1015.8 1014.1 0.0
24/11:30am 19.9 16.9 18.7 93 0.8 S 32 37 17 20 1015.8 1014.1 0.0
24/11:00am 20.4 17.7 19.2 93 0.8 S 32 41 17 22 1015.3 1013.7 0.0
24/10:30am 21.2 17.9 19.3 89 1.2 SSW 35 46 19 25 1014.7 1013.1 0.0
24/10:00am 23.2 22.7 20.7 86 1.6 S 24 30 13 16 1014.4 1012.8 0.0
24/09:30am 23.4 22.1 20.7 85 1.8 S 28 35 15 19 1014.0 1012.4 3.0
24/09:00am 23.2 21.8 20.5 85 1.8 SSW 28 33 15 18 1013.5 1011.9 3.0
24/08:38am 23.2 21.8 20.5 85 1.8 SSW 28 35 15 19 1013.2 1011.6 3.0
24/08:30am 23.5 23.1 21.0 86 1.7 SSW 24 32 13 17 1013.3 1011.7 3.0
24/08:07am 23.4 23.9 21.1 87 1.5 SSW 20 28 11 15 1013.1 1011.5 3.0
24/08:00am 23.4 24.1 21.5 89 1.3 SSW 20 28 11 15 1013.1 1011.5 3.0
24/07:34am 23.0 24.9 21.3 90 1.1 SW 13 17 7 9 1012.7 1011.0 3.0
24/07:30am 23.0 24.9 21.3 90 1.1 SSW 13 17 7 9 1012.7 1011.0 3.0
24/07:16am 23.0 24.8 21.1 89 1.3 SSW 13 17 7 9 1012.5 1010.8 2.6
24/07:00am 23.1 25.0 21.4 90 1.1 SW 13 17 7 9 1012.2 1010.5 2.6
24/06:51am 23.1 24.3 21.4 90 1.1 SW 17 22 9 12 1012.0 1010.3 2.6
24/06:48am 23.1 23.9 21.4 90 1.1 SW 19 26 10 14 1011.9 1010.2 2.6
24/06:30am 23.2 23.0 21.3 89 1.3 SSW 24 32 13 17 1011.2 1009.6 2.6
24/06:00am 23.3 23.7 21.0 87 1.5 SSW 20 30 11 16 1011.3 1009.7 2.6
24/05:59am 23.3 23.7 21.0 87 1.5 SW 20 30 11 16 1011.3 1009.7 2.6
24/05:58am 23.3 23.3 21.0 87 1.5 SW 22 30 12 16 1011.3 1009.7 2.6
24/05:48am 23.6 22.8 20.9 85 1.8 SW 26 37 14 20 1011.3 1009.7 2.6
24/05:30am 23.7 22.7 20.4 82 2.2 SSW 26 33 14 18 1010.6 1009.0 2.6
24/05:00am 26.1 25.3 20.0 69 4.0 SSW 24 33 13 18 1009.8 1008.2 2.6
24/04:30am 25.9 28.1 21.1 75 3.2 SW 11 15 6 8 1009.9 1008.3 2.6
24/04:00am 26.0 28.5 21.0 74 3.3 SW 9 11 5 6 1009.6 1007.9 2.6
24/03:30am 26.3 28.2 20.6 71 3.8 SSW 11 13 6 7 1009.6 1007.9 2.6
24/03:00am 26.1 28.5 20.9 73 3.5 SW 9 13 5 7 1009.8 1008.2 2.6
24/02:30am 26.4 26.7 20.7 71 3.8 SW 20 26 11 14 1010.3 1008.7 2.6
24/02:00am 26.8 27.3 21.1 71 3.8 WSW 20 26 11 14 1010.3 1008.7 2.6
24/01:30am 26.5 25.0 20.3 68 4.1 SSW 28 32 15 17 1010.1 1008.5 2.6
24/01:00am 25.4 22.6 19.1 68 4.1 SW 32 46 17 25 1010.7 1009.1 2.2
24/12:51am 25.2 23.9 19.1 69 3.9 SW 24 37 13 20 1010.5 1008.9 1.4
24/12:38am 24.6 20.2 18.5 69 3.9 WSW 39 54 21 29 1010.1 1008.5 0.8
24/12:36am 24.7 20.5 18.9 70 3.7 WSW 39 54 21 29 1010.1 1008.5 0.6
24/12:30am 28.5 25.1 18.9 56 6.3 WSW 35 52 19 28 1009.5 1007.8 0.0
24/12:21am 31.6 26.8 14.7 36 10.5 SW 33 43 18 23 1009.0 1007.3 0.0
24/12:00am 33.8 34.4 19.5 43 9.6 NW 15 24 8 13 1008.3 1006.6 0.0
 
Date/Time
EDT
Temp
°C
App
Temp
°C
Dew
Point
°C
Rel
Hum
%
Delta-T
°C
Wind Press
QNH
hPa
Press
MSL
hPa
Rain since
9am
mm
Dir  Spd
km/h
Gust
km/h
Spd
kts
Gust
kts
23/11:30pm 34.2 34.1 17.8 37 10.7 WNW 15 20 8 11 1008.1 1006.4 0.0
23/11:00pm 35.1 34.4 17.3 34 11.6 N 17 20 9 11 1007.4 1005.8 0.0
23/10:30pm 35.4 34.8 14.6 28 13.0 NNW 11 15 6 8 1007.0 1005.4 0.0
23/10:00pm 35.0 34.3 14.3 29 12.9 NNW 11 13 6 7 1006.4 1004.7 0.0
23/09:30pm 35.2 34.7 13.9 27 13.2 NNW 9 11 5 6 1005.9 1004.2 0.0
23/09:00pm 35.4 35.0 14.1 28 13.3 NW 9 11 5 6 1005.3 1003.6 0.0
23/08:30pm 36.3 34.6 13.7 25 14.0 WNW 15 20 8 11 1005.5 1003.8 0.0
23/08:00pm 37.1 35.1 13.8 25 14.6 NW 17 24 9 13 1005.1 1003.4 0.0
23/07:30pm 38.3 36.2 13.5 23 15.5 NW 17 20 9 11 1005.1 1003.4 0.0
23/07:00pm 38.3 36.2 13.5 23 15.5 NW 17 26 9 14 1004.8 1003.1 0.0
23/06:30pm 38.2 35.8 12.7 21 15.8 NW 17 26 9 14 1004.6 1002.9 0.0
23/06:00pm 38.7 35.3 12.5 21 16.2 WNW 22 30 12 16 1004.5 1002.8 0.0
23/05:30pm 39.2 36.3 12.9 21 16.3 NW 20 30 11 16 1004.7 1003.0 0.0
23/05:00pm 39.2 36.3 12.9 21 16.3 NW 20 35 11 19 1004.9 1003.2 0.0
23/04:30pm 38.7 35.1 13.2 22 15.8 NNW 24 35 13 19 1005.1 1003.4 0.0
23/04:00pm 39.0 35.5 13.4 22 16.0 NW 24 35 13 19 1005.5 1003.8 0.0
23/03:30pm 38.4 34.0 12.9 22 15.8 NW 28 43 15 23 1005.9 1004.2 0.0
23/03:00pm 38.4 33.8 12.2 21 16.1 NW 28 41 15 22 1006.3 1004.6 0.0
23/02:30pm 37.6 32.6 10.8 20 16.0 NW 28 41 15 22 1006.6 1005.0 0.0
23/02:00pm 38.2 32.7 10.5 19 16.6 NW 30 44 16 24 1006.9 1005.3 0.0
23/01:30pm 37.1 31.5 8.8 18 16.4 NW 28 39 15 21 1007.2 1005.6 0.0
23/01:28pm 37.2 31.6 8.9 18 16.4 NW 28 41 15 22 1007.2 1005.6 0.0
23/01:00pm 37.9 32.5 9.5 18 16.7 NW 28 39 15 21 1007.3 1005.7 0.0
23/12:30pm 36.9 31.8 7.8 17 16.6 WNW 24 37 13 20 1007.5 1005.9 0.0
23/12:00pm 35.9 30.6 5.2 15 16.8 NNW 22 30 12 16 1007.7 1006.1 0.0
23/11:30am 35.4 30.4 4.8 15 16.6 NW 20 30 11 16 1007.8 1006.2 0.0
23/11:00am 34.8 29.6 3.4 14 16.6 NW 20 28 11 15 1007.7 1006.1 0.0
23/10:30am 34.3 29.4 4.9 16 15.8 NW 20 30 11 16 1007.8 1006.2 0.0
23/10:11am 34.0 29.6 4.6 16 15.7 NW 17 28 9 15 1007.8 1006.2 0.0
23/10:00am 33.5 29.4 4.2 16 15.6 WNW 15 19 8 10 1007.7 1006.1 0.0
23/09:30am 32.6 28.9 4.4 17 15.0 NNW 13 19 7 10 1007.5 1005.9 0.0
23/09:01am 31.8 28.7 3.8 17 14.6 N 9 13 5 7 1007.4 1005.8 0.0
23/09:00am 31.8 29.0 5.3 19 14.2 N 9 13 5 7 1007.4 1005.8 0.0
23/08:46am 30.8 28.4 5.3 20 13.6 NNW 7 9 4 5 1007.2 1005.6 0.0
23/08:36am 30.5 28.0 5.0 20 13.5 N 7 11 4 6 1007.2 1005.6 0.0
23/08:30am 30.1 27.4 5.4 21 13.1 N 9 11 5 6 1007.2 1005.6 0.0
23/08:18am 29.6 27.0 6.3 23 12.5 N 9 11 5 6 1007.1 1005.5 0.0
23/08:00am 28.0 25.9 8.3 29 10.9 NNW 9 11 5 6 1007.1 1005.5 0.0
23/07:52am 27.4 25.3 8.3 30 10.5 NNW 9 11 5 6 1007.1 1005.5 0.0
23/07:30am 24.8 24.1 8.7 36 8.8 ENE 2 9 1 5 1007.0 1005.4 0.0
23/07:00am 23.3 22.9 8.2 38 8.1 CALM 0 0 0 0 1006.9 1005.3 0.0
23/06:30am 23.0 22.9 9.4 42 7.5 CALM 0 0 0 0 1006.8 1005.2 0.0
23/06:00am 23.1 22.8 8.8 40 7.8 CALM 0 0 0 0 1006.8 1005.2 0.0
23/05:30am 23.3 22.4 7.8 37 8.3 S 2 7 1 4 1006.8 1005.2 0.0
23/05:00am 22.2 21.2 9.0 43 7.2 S 4 7 2 4 1006.8 1005.2 0.0
23/04:30am 24.5 22.5 7.2 33 9.2 N 7 9 4 5 1007.0 1005.4 0.0
23/04:00am 25.8 23.1 5.4 27 10.6 NNE 9 11 5 6 1006.8 1005.2 0.0
23/03:30am 26.5 23.8 5.5 26 11.0 N 9 11 5 6 1007.0 1005.4 0.0
23/03:00am 26.8 23.6 5.1 25 11.3 NNE 11 13 6 7 1007.4 1005.8 0.0
23/02:30am 26.4 23.9 6.4 28 10.6 NE 9 11 5 6 1007.7 1006.1 0.0
23/02:00am 26.0 24.5 6.6 29 10.3 ENE 4 7 2 4 1008.2 1006.5 0.0
23/01:30am 26.2 25.4 6.3 28 10.5 CALM 0 0 0 0 1008.3 1006.6 0.0
23/01:00am 27.2 25.1 6.0 26 11.2 NE 6 7 3 4 1008.9 1007.2 0.0
23/12:30am 26.8 23.8 6.2 27 10.9 E 11 11 6 6 1008.9 1007.2 0.0
23/12:00am 26.3 23.1 6.9 29 10.4 ESE 13 15 7 8 1009.0 1007.3 0.0
 
Date/Time
EDT
Temp
°C
App
Temp
°C
Dew
Point
°C
Rel
Hum
%
Delta-T
°C
Wind Press
QNH
hPa
Press
MSL
hPa
Rain since
9am
mm
Dir  Spd
km/h
Gust
km/h
Spd
kts
Gust
kts
22/11:30pm 27.1 25.3 5.4 25 11.3 SE 4 9 2 5 1009.3 1007.6 0.0
22/11:00pm 27.4 26.3 5.1 24 11.6 CALM 0 0 0 0 1009.3 1007.6 0.0
22/10:30pm 28.3 27.1 4.6 22 12.3 CALM 0 0 0 0 1009.2 1007.5 0.0
22/10:00pm 27.8 26.4 5.4 24 11.8 ENE 2 6 1 3 1009.1 1007.4 0.0
22/09:30pm 29.8 26.8 2.1 17 13.9 NE 7 9 4 5 1009.1 1007.4 0.0
22/09:00pm 31.2 27.6 0.6 14 15.1 NE 9 11 5 6 1009.0 1007.3 0.0
22/08:30pm 32.1 28.1 0.2 13 15.7 NE 11 13 6 7 1008.9 1007.2 0.0
22/08:00pm 33.4 30.3 1.3 13 16.3 ENE 7 15 4 8 1008.7 1007.0 0.0
22/07:30pm 34.1 30.5 0.7 12 16.8 NE 9 17 5 9 1008.4 1006.7 0.0
22/07:00pm 34.6 30.1 2.2 13 16.8 E 15 24 8 13 1008.2 1006.5 0.0
22/06:30pm 34.5 30.6 1.0 12 17.0 ENE 11 19 6 10 1008.3 1006.6 0.0
22/06:00pm 34.9 31.6 2.4 13 16.9 N 9 17 5 9 1008.4 1006.7 0.0
22/05:30pm 34.9 31.2 2.4 13 16.9 NNE 11 24 6 13 1008.8 1007.1 0.0
22/05:00pm 34.8 31.7 1.2 12 17.1 NNE 7 24 4 13 1009.3 1007.6 0.0
22/04:30pm 34.6 30.9 2.2 13 16.7 E 11 22 6 12 1009.8 1008.2 0.0
22/04:00pm 34.2 29.3 1.9 13 16.6 SE 17 28 9 15 1010.2 1008.6 0.0
22/03:30pm 33.7 30.2 1.5 13 16.4 NW 9 13 5 7 1010.4 1008.8 0.0
22/03:00pm 33.3 29.0 1.2 13 16.2 ENE 13 24 7 13 1010.7 1009.1 0.0
22/02:30pm 33.3 30.0 2.2 14 15.9 NNE 9 17 5 9 1010.9 1009.3 0.0
22/02:00pm 32.3 28.1 1.4 14 15.6 ENE 13 26 7 14 1011.1 1009.5 0.0
22/01:30pm 32.0 28.0 3.1 16 14.9 E 13 26 7 14 1011.6 1010.0 0.0
22/01:00pm 31.2 26.5 3.3 17 14.4 NNE 17 26 9 14 1012.3 1010.6 0.0

Other Formats:

Comma delimited format used in spreadsheet applications
http://www.bom.gov.au/fwo/IDN60801/IDN60801.94691.axf

JavaScript Object Notation format (JSON) in row-major order
http://www.bom.gov.au/fwo/IDN60801/IDN60801.94691.json